Terminal Aerodrome Forecast
Issued by NWS

Home | Current Version | Previous Version | Text Only | Print | Product List | Glossary On
Versions: 1 2 3 4 5 6 7 8 9 10 11 12 13 14 15 16 17 18 19 20 21
000
FTUS42 KGSP 201735
TAFAND
TAF
KAND 201735Z 2018/2118 17004KT P6SM BKN015
     FM202100 14003KT P6SM BKN030
     FM210100 08004KT 6SM BR BKN035
     FM210400 11005KT 5SM BR BKN018
     FM210700 14005KT 2SM BR VCSH OVC005
     FM211500 16006KT P6SM OVC004 PROB30 2115/2118 1SM -SHRA OVC001=

USA.gov is the U.S. government's official web portal to all federal, state and local government web resources and services.